sensor_id;sensor_type;location;lat;lon;timestamp;temperature;humidity
37910;DHT22;23741;49.446;8.754;2023-03-23T00:00:28;17.90;51.70
37910;DHT22;23741;49.446;8.754;2023-03-23T00:02:29;17.90;51.70
37910;DHT22;23741;49.446;8.754;2023-03-23T00:04:33;17.90;51.90
37910;DHT22;23741;49.446;8.754;2023-03-23T00:06:33;17.90;51.90
37910;DHT22;23741;49.446;8.754;2023-03-23T00:08:36;17.90;51.90
37910;DHT22;23741;49.446;8.754;2023-03-23T00:10:37;17.90;51.90
37910;DHT22;23741;49.446;8.754;2023-03-23T00:12:39;17.90;51.90
37910;DHT22;23741;49.446;8.754;2023-03-23T00:14:42;17.90;51.80
37910;DHT22;23741;49.446;8.754;2023-03-23T00:16:43;17.90;51.80
37910;DHT22;23741;49.446;8.754;2023-03-23T00:18:46;17.90;51.70
37910;DHT22;23741;49.446;8.754;2023-03-23T00:20:48;17.90;51.70
37910;DHT22;23741;49.446;8.754;2023-03-23T00:22:49;17.80;51.70
37910;DHT22;23741;49.446;8.754;2023-03-23T00:24:50;17.80;51.60
37910;DHT22;23741;49.446;8.754;2023-03-23T00:26:51;17.90;51.70
37910;DHT22;23741;49.446;8.754;2023-03-23T00:28:54;17.80;51.70
37910;DHT22;23741;49.446;8.754;2023-03-23T00:30:58;17.80;51.70
37910;DHT22;23741;49.446;8.754;2023-03-23T00:32:59;17.80;51.70
37910;DHT22;23741;49.446;8.754;2023-03-23T00:35:00;17.80;51.90
37910;DHT22;23741;49.446;8.754;2023-03-23T00:37:01;17.80;51.70
37910;DHT22;23741;49.446;8.754;2023-03-23T00:39:02;17.80;51.70
37910;DHT22;23741;49.446;8.754;2023-03-23T00:41:03;17.80;51.80
37910;DHT22;23741;49.446;8.754;2023-03-23T00:43:04;17.80;51.80
37910;DHT22;23741;49.446;8.754;2023-03-23T00:45:05;17.90;51.80
37910;DHT22;23741;49.446;8.754;2023-03-23T00:47:10;17.80;51.70
37910;DHT22;23741;49.446;8.754;2023-03-23T00:49:12;17.80;51.70
37910;DHT22;23741;49.446;8.754;2023-03-23T00:51:13;17.80;51.70
37910;DHT22;23741;49.446;8.754;2023-03-23T00:53:14;17.80;51.70
37910;DHT22;23741;49.446;8.754;2023-03-23T00:55:15;17.80;51.80
37910;DHT22;23741;49.446;8.754;2023-03-23T00:57:16;17.90;51.90
37910;DHT22;23741;49.446;8.754;2023-03-23T00:59:17;17.80;51.80
37910;DHT22;23741;49.446;8.754;2023-03-23T01:01:18;17.80;51.80
37910;DHT22;23741;49.446;8.754;2023-03-23T01:03:19;17.80;51.70
37910;DHT22;23741;49.446;8.754;2023-03-23T01:05:19;17.80;51.80
37910;DHT22;23741;49.446;8.754;2023-03-23T01:07:20;17.80;52.50
37910;DHT22;23741;49.446;8.754;2023-03-23T01:09:23;17.80;51.80
37910;DHT22;23741;49.446;8.754;2023-03-23T01:11:24;17.80;51.80
37910;DHT22;23741;49.446;8.754;2023-03-23T01:13:25;17.80;51.90
37910;DHT22;23741;49.446;8.754;2023-03-23T01:15:26;17.80;51.80
37910;DHT22;23741;49.446;8.754;2023-03-23T01:17:27;17.80;51.80
37910;DHT22;23741;49.446;8.754;2023-03-23T01:19:28;17.80;51.70
37910;DHT22;23741;49.446;8.754;2023-03-23T01:21:28;17.80;51.80
37910;DHT22;23741;49.446;8.754;2023-03-23T01:23:31;17.80;51.80
37910;DHT22;23741;49.446;8.754;2023-03-23T01:25:34;17.80;51.80
37910;DHT22;23741;49.446;8.754;2023-03-23T01:27:35;17.80;52.30
37910;DHT22;23741;49.446;8.754;2023-03-23T01:29:36;17.80;51.60
37910;DHT22;23741;49.446;8.754;2023-03-23T01:31:36;17.80;51.70
37910;DHT22;23741;49.446;8.754;2023-03-23T01:33:40;17.90;51.80
37910;DHT22;23741;49.446;8.754;2023-03-23T01:35:41;17.80;51.60
37910;DHT22;23741;49.446;8.754;2023-03-23T01:37:42;17.80;51.60
37910;DHT22;23741;49.446;8.754;2023-03-23T01:39:43;17.80;51.60
37910;DHT22;23741;49.446;8.754;2023-03-23T01:41:43;17.80;51.60
37910;DHT22;23741;49.446;8.754;2023-03-23T01:46:28;17.80;51.70
37910;DHT22;23741;49.446;8.754;2023-03-23T01:48:30;17.80;51.70
37910;DHT22;23741;49.446;8.754;2023-03-23T01:50:36;17.80;51.70
37910;DHT22;23741;49.446;8.754;2023-03-23T01:52:37;17.80;51.70
37910;DHT22;23741;49.446;8.754;2023-03-23T01:54:39;17.90;51.70
37910;DHT22;23741;49.446;8.754;2023-03-23T01:56:42;17.80;51.70
37910;DHT22;23741;49.446;8.754;2023-03-23T01:58:45;17.70;51.80
37910;DHT22;23741;49.446;8.754;2023-03-23T02:00:46;17.80;51.80
37910;DHT22;23741;49.446;8.754;2023-03-23T02:02:48;17.70;51.80
37910;DHT22;23741;49.446;8.754;2023-03-23T02:04:51;17.70;51.70
37910;DHT22;23741;49.446;8.754;2023-03-23T02:06:52;17.70;51.80
37910;DHT22;23741;49.446;8.754;2023-03-23T02:08:56;17.70;51.80
37910;DHT22;23741;49.446;8.754;2023-03-23T02:10:57;17.70;51.80
37910;DHT22;23741;49.446;8.754;2023-03-23T02:12:59;17.70;51.80
37910;DHT22;23741;49.446;8.754;2023-03-23T02:15:01;17.80;51.90
37910;DHT22;23741;49.446;8.754;2023-03-23T02:17:17;17.70;51.80
37910;DHT22;23741;49.446;8.754;2023-03-23T02:26:11;17.70;51.90
37910;DHT22;23741;49.446;8.754;2023-03-23T02:28:21;17.70;51.90
37910;DHT22;23741;49.446;8.754;2023-03-23T02:31:08;17.70;52.00
37910;DHT22;23741;49.446;8.754;2023-03-23T02:35:18;17.70;51.90
37910;DHT22;23741;49.446;8.754;2023-03-23T02:37:24;17.70;52.00
37910;DHT22;23741;49.446;8.754;2023-03-23T02:39:39;17.70;52.10
37910;DHT22;23741;49.446;8.754;2023-03-23T02:41:51;17.70;52.20
37910;DHT22;23741;49.446;8.754;2023-03-23T02:43:53;17.70;52.30
37910;DHT22;23741;49.446;8.754;2023-03-23T02:45:55;17.70;52.30
37910;DHT22;23741;49.446;8.754;2023-03-23T02:47:56;17.70;52.20
37910;DHT22;23741;49.446;8.754;2023-03-23T02:49:57;17.70;52.10
37910;DHT22;23741;49.446;8.754;2023-03-23T02:51:59;17.70;52.00
37910;DHT22;23741;49.446;8.754;2023-03-23T02:54:01;17.70;52.00
37910;DHT22;23741;49.446;8.754;2023-03-23T02:56:03;17.70;52.00
37910;DHT22;23741;49.446;8.754;2023-03-23T02:58:06;17.70;52.10
37910;DHT22;23741;49.446;8.754;2023-03-23T03:00:07;17.60;52.00
37910;DHT22;23741;49.446;8.754;2023-03-23T03:02:15;17.70;52.00
37910;DHT22;23741;49.446;8.754;2023-03-23T03:04:18;17.70;52.00
37910;DHT22;23741;49.446;8.754;2023-03-23T03:06:26;17.70;52.10
37910;DHT22;23741;49.446;8.754;2023-03-23T03:08:33;17.70;52.10
37910;DHT22;23741;49.446;8.754;2023-03-23T03:10:54;17.70;51.90
37910;DHT22;23741;49.446;8.754;2023-03-23T03:13:18;17.70;52.00
37910;DHT22;23741;49.446;8.754;2023-03-23T03:17:26;17.70;52.10
37910;DHT22;23741;49.446;8.754;2023-03-23T03:19:31;17.70;52.10
37910;DHT22;23741;49.446;8.754;2023-03-23T03:21:34;17.70;52.10
37910;DHT22;23741;49.446;8.754;2023-03-23T03:23:36;17.70;52.70
37910;DHT22;23741;49.446;8.754;2023-03-23T03:25:38;17.70;52.10
37910;DHT22;23741;49.446;8.754;2023-03-23T03:27:41;17.70;52.20
37910;DHT22;23741;49.446;8.754;2023-03-23T03:29:51;17.70;52.20
37910;DHT22;23741;49.446;8.754;2023-03-23T03:31:54;17.70;52.20
37910;DHT22;23741;49.446;8.754;2023-03-23T03:33:57;17.70;52.20
37910;DHT22;23741;49.446;8.754;2023-03-23T03:35:59;17.70;52.20
37910;DHT22;23741;49.446;8.754;2023-03-23T03:38:07;17.70;52.20
37910;DHT22;23741;49.446;8.754;2023-03-23T03:40:11;17.60;52.10
37910;DHT22;23741;49.446;8.754;2023-03-23T03:42:14;17.60;52.10
37910;DHT22;23741;49.446;8.754;2023-03-23T03:44:15;17.60;52.10
37910;DHT22;23741;49.446;8.754;2023-03-23T03:46:16;17.70;52.20
37910;DHT22;23741;49.446;8.754;2023-03-23T03:48:16;17.60;52.10
37910;DHT22;23741;49.446;8.754;2023-03-23T03:50:17;17.60;52.10
37910;DHT22;23741;49.446;8.754;2023-03-23T03:52:18;17.60;52.10
37910;DHT22;23741;49.446;8.754;2023-03-23T03:54:19;17.60;52.10
37910;DHT22;23741;49.446;8.754;2023-03-23T03:56:20;17.60;52.10
37910;DHT22;23741;49.446;8.754;2023-03-23T03:58:31;17.60;52.20
37910;DHT22;23741;49.446;8.754;2023-03-23T04:00:51;17.70;52.20
37910;DHT22;23741;49.446;8.754;2023-03-23T04:02:56;17.60;52.20
37910;DHT22;23741;49.446;8.754;2023-03-23T04:05:31;17.60;52.20
37910;DHT22;23741;49.446;8.754;2023-03-23T04:07:33;17.60;52.20
37910;DHT22;23741;49.446;8.754;2023-03-23T04:09:34;17.60;52.20
37910;DHT22;23741;49.446;8.754;2023-03-23T04:11:34;17.60;52.10
37910;DHT22;23741;49.446;8.754;2023-03-23T04:14:01;17.70;52.20
37910;DHT22;23741;49.446;8.754;2023-03-23T04:16:13;17.60;52.20
37910;DHT22;23741;49.446;8.754;2023-03-23T04:18:14;17.60;52.30
37910;DHT22;23741;49.446;8.754;2023-03-23T04:20:18;17.60;52.30
37910;DHT22;23741;49.446;8.754;2023-03-23T04:22:23;17.60;52.30
37910;DHT22;23741;49.446;8.754;2023-03-23T04:24:31;17.60;52.30
37910;DHT22;23741;49.446;8.754;2023-03-23T04:26:33;17.60;52.30
37910;DHT22;23741;49.446;8.754;2023-03-23T04:28:43;17.60;52.40
37910;DHT22;23741;49.446;8.754;2023-03-23T04:31:03;17.60;52.40
37910;DHT22;23741;49.446;8.754;2023-03-23T04:33:04;17.60;52.40
37910;DHT22;23741;49.446;8.754;2023-03-23T04:35:05;17.60;52.40
37910;DHT22;23741;49.446;8.754;2023-03-23T04:37:13;17.60;52.40
37910;DHT22;23741;49.446;8.754;2023-03-23T04:39:14;17.60;52.40
37910;DHT22;23741;49.446;8.754;2023-03-23T04:41:16;17.60;52.40
37910;DHT22;23741;49.446;8.754;2023-03-23T04:43:28;17.60;52.50
37910;DHT22;23741;49.446;8.754;2023-03-23T04:45:35;17.60;52.50
37910;DHT22;23741;49.446;8.754;2023-03-23T04:47:38;17.60;52.50
37910;DHT22;23741;49.446;8.754;2023-03-23T04:49:52;17.60;52.60
37910;DHT22;23741;49.446;8.754;2023-03-23T04:52:00;17.60;52.70
37910;DHT22;23741;49.446;8.754;2023-03-23T04:54:14;17.60;52.80
37910;DHT22;23741;49.446;8.754;2023-03-23T04:56:17;17.60;52.80
37910;DHT22;23741;49.446;8.754;2023-03-23T04:58:22;17.60;53.00
37910;DHT22;23741;49.446;8.754;2023-03-23T05:00:37;17.60;52.90
37910;DHT22;23741;49.446;8.754;2023-03-23T05:02:38;17.60;53.00
37910;DHT22;23741;49.446;8.754;2023-03-23T05:04:41;17.60;53.20
37910;DHT22;23741;49.446;8.754;2023-03-23T05:06:46;17.60;53.30
37910;DHT22;23741;49.446;8.754;2023-03-23T05:08:54;17.50;53.00
37910;DHT22;23741;49.446;8.754;2023-03-23T05:10:57;17.50;53.00
37910;DHT22;23741;49.446;8.754;2023-03-23T05:13:00;17.50;53.10
37910;DHT22;23741;49.446;8.754;2023-03-23T05:15:01;17.50;53.30
37910;DHT22;23741;49.446;8.754;2023-03-23T05:17:04;17.50;53.10
37910;DHT22;23741;49.446;8.754;2023-03-23T05:19:05;17.40;53.20
37910;DHT22;23741;49.446;8.754;2023-03-23T05:21:07;17.40;53.40
37910;DHT22;23741;49.446;8.754;2023-03-23T05:23:12;17.40;53.50
37910;DHT22;23741;49.446;8.754;2023-03-23T05:25:13;17.40;53.40
37910;DHT22;23741;49.446;8.754;2023-03-23T05:27:18;17.40;53.20
37910;DHT22;23741;49.446;8.754;2023-03-23T05:29:22;17.30;53.50
37910;DHT22;23741;49.446;8.754;2023-03-23T05:31:31;17.30;53.50
37910;DHT22;23741;49.446;8.754;2023-03-23T05:33:32;17.20;53.20
37910;DHT22;23741;49.446;8.754;2023-03-23T05:35:48;17.30;53.60
37910;DHT22;23741;49.446;8.754;2023-03-23T05:37:52;17.20;54.00
37910;DHT22;23741;49.446;8.754;2023-03-23T05:39:54;17.20;54.30
37910;DHT22;23741;49.446;8.754;2023-03-23T05:42:19;17.10;54.50
37910;DHT22;23741;49.446;8.754;2023-03-23T05:44:28;17.10;54.60
37910;DHT22;23741;49.446;8.754;2023-03-23T05:46:33;17.10;54.70
37910;DHT22;23741;49.446;8.754;2023-03-23T05:48:36;17.10;54.90
37910;DHT22;23741;49.446;8.754;2023-03-23T05:50:38;17.10;55.20
37910;DHT22;23741;49.446;8.754;2023-03-23T05:52:39;17.00;54.80
37910;DHT22;23741;49.446;8.754;2023-03-23T05:54:44;17.00;54.90
37910;DHT22;23741;49.446;8.754;2023-03-23T05:56:45;17.00;54.70
37910;DHT22;23741;49.446;8.754;2023-03-23T05:58:46;17.00;54.70
37910;DHT22;23741;49.446;8.754;2023-03-23T06:00:47;17.00;54.90
37910;DHT22;23741;49.446;8.754;2023-03-23T06:02:55;17.00;55.10
37910;DHT22;23741;49.446;8.754;2023-03-23T06:05:04;17.00;55.40
37910;DHT22;23741;49.446;8.754;2023-03-23T06:07:08;17.00;55.30
37910;DHT22;23741;49.446;8.754;2023-03-23T06:09:13;17.00;55.30
37910;DHT22;23741;49.446;8.754;2023-03-23T06:11:37;17.00;55.20
37910;DHT22;23741;49.446;8.754;2023-03-23T06:14:00;16.90;55.10
37910;DHT22;23741;49.446;8.754;2023-03-23T06:16:03;16.90;55.20
37910;DHT22;23741;49.446;8.754;2023-03-23T06:18:39;16.90;54.90
37910;DHT22;23741;49.446;8.754;2023-03-23T06:21:09;16.90;54.90
37910;DHT22;23741;49.446;8.754;2023-03-23T06:23:21;16.90;54.70
37910;DHT22;23741;49.446;8.754;2023-03-23T06:25:22;16.90;54.90
37910;DHT22;23741;49.446;8.754;2023-03-23T06:27:24;16.90;55.00
37910;DHT22;23741;49.446;8.754;2023-03-23T06:29:25;16.80;54.80
37910;DHT22;23741;49.446;8.754;2023-03-23T06:31:28;16.80;54.90
37910;DHT22;23741;49.446;8.754;2023-03-23T06:33:30;16.80;55.00
37910;DHT22;23741;49.446;8.754;2023-03-23T06:35:40;16.80;54.80
37910;DHT22;23741;49.446;8.754;2023-03-23T06:37:54;16.80;55.00
37910;DHT22;23741;49.446;8.754;2023-03-23T06:40:09;16.80;55.00
37910;DHT22;23741;49.446;8.754;2023-03-23T06:42:15;16.80;54.50
37910;DHT22;23741;49.446;8.754;2023-03-23T06:44:21;16.80;54.60
37910;DHT22;23741;49.446;8.754;2023-03-23T06:46:22;16.90;54.80
37910;DHT22;23741;49.446;8.754;2023-03-23T06:48:28;16.80;54.90
37910;DHT22;23741;49.446;8.754;2023-03-23T06:50:29;16.80;54.90
37910;DHT22;23741;49.446;8.754;2023-03-23T06:52:31;16.80;54.90
37910;DHT22;23741;49.446;8.754;2023-03-23T06:54:32;16.80;55.10
37910;DHT22;23741;49.446;8.754;2023-03-23T06:56:35;16.80;54.90
37910;DHT22;23741;49.446;8.754;2023-03-23T06:58:36;16.90;54.80
37910;DHT22;23741;49.446;8.754;2023-03-23T07:00:38;16.90;54.80
37910;DHT22;23741;49.446;8.754;2023-03-23T07:02:39;16.90;55.00
37910;DHT22;23741;49.446;8.754;2023-03-23T07:04:41;16.90;55.00
37910;DHT22;23741;49.446;8.754;2023-03-23T07:06:50;16.90;55.00
37910;DHT22;23741;49.446;8.754;2023-03-23T07:08:52;16.90;55.10
37910;DHT22;23741;49.446;8.754;2023-03-23T07:10:56;16.90;55.10
37910;DHT22;23741;49.446;8.754;2023-03-23T07:13:01;16.90;54.90
37910;DHT22;23741;49.446;8.754;2023-03-23T07:15:08;17.00;54.90
37910;DHT22;23741;49.446;8.754;2023-03-23T07:17:12;16.90;54.90
37910;DHT22;23741;49.446;8.754;2023-03-23T07:19:20;16.90;54.90
37910;DHT22;23741;49.446;8.754;2023-03-23T07:21:21;16.90;55.00
37910;DHT22;23741;49.446;8.754;2023-03-23T07:23:22;16.90;55.10
37910;DHT22;23741;49.446;8.754;2023-03-23T07:25:36;16.90;55.20
37910;DHT22;23741;49.446;8.754;2023-03-23T07:27:37;16.90;55.30
37910;DHT22;23741;49.446;8.754;2023-03-23T07:29:38;16.90;55.30
37910;DHT22;23741;49.446;8.754;2023-03-23T07:31:48;17.00;55.60
37910;DHT22;23741;49.446;8.754;2023-03-23T07:33:49;16.90;55.10
37910;DHT22;23741;49.446;8.754;2023-03-23T07:35:51;16.90;55.30
37910;DHT22;23741;49.446;8.754;2023-03-23T07:37:53;16.90;55.70
37910;DHT22;23741;49.446;8.754;2023-03-23T07:39:54;16.90;55.70
37910;DHT22;23741;49.446;8.754;2023-03-23T07:41:55;16.90;56.30
37910;DHT22;23741;49.446;8.754;2023-03-23T07:44:08;16.80;56.20
37910;DHT22;23741;49.446;8.754;2023-03-23T07:46:10;16.80;56.80
37910;DHT22;23741;49.446;8.754;2023-03-23T07:48:38;16.80;57.00
37910;DHT22;23741;49.446;8.754;2023-03-23T07:50:39;16.80;57.30
37910;DHT22;23741;49.446;8.754;2023-03-23T07:52:43;16.80;57.10
37910;DHT22;23741;49.446;8.754;2023-03-23T07:54:44;16.80;57.10
37910;DHT22;23741;49.446;8.754;2023-03-23T07:57:05;16.70;57.40
37910;DHT22;23741;49.446;8.754;2023-03-23T07:59:11;16.70;57.30
37910;DHT22;23741;49.446;8.754;2023-03-23T08:01:15;16.70;57.40
37910;DHT22;23741;49.446;8.754;2023-03-23T08:03:21;16.80;57.70
37910;DHT22;23741;49.446;8.754;2023-03-23T08:05:57;16.80;57.60
37910;DHT22;23741;49.446;8.754;2023-03-23T08:08:18;16.70;57.20
37910;DHT22;23741;49.446;8.754;2023-03-23T08:10:42;16.70;57.40
37910;DHT22;23741;49.446;8.754;2023-03-23T08:13:01;16.70;57.50
37910;DHT22;23741;49.446;8.754;2023-03-23T08:15:37;16.80;56.80
37910;DHT22;23741;49.446;8.754;2023-03-23T08:17:47;16.70;56.70
37910;DHT22;23741;49.446;8.754;2023-03-23T08:20:03;16.70;56.80
37910;DHT22;23741;49.446;8.754;2023-03-23T08:22:39;16.70;56.70
37910;DHT22;23741;49.446;8.754;2023-03-23T08:25:02;16.70;56.30
37910;DHT22;23741;49.446;8.754;2023-03-23T08:27:24;16.60;56.60
37910;DHT22;23741;49.446;8.754;2023-03-23T08:29:46;16.60;56.20
37910;DHT22;23741;49.446;8.754;2023-03-23T08:32:00;16.60;56.40
37910;DHT22;23741;49.446;8.754;2023-03-23T08:34:21;16.60;56.10
37910;DHT22;23741;49.446;8.754;2023-03-23T08:36:58;16.60;56.10
37910;DHT22;23741;49.446;8.754;2023-03-23T08:39:16;16.60;56.40
37910;DHT22;23741;49.446;8.754;2023-03-23T08:41:30;16.60;56.30
37910;DHT22;23741;49.446;8.754;2023-03-23T08:43:43;16.60;56.10
37910;DHT22;23741;49.446;8.754;2023-03-23T08:46:20;16.60;56.30
37910;DHT22;23741;49.446;8.754;2023-03-23T08:48:39;16.50;56.60
37910;DHT22;23741;49.446;8.754;2023-03-23T08:50:58;16.50;57.50
37910;DHT22;23741;49.446;8.754;2023-03-23T08:53:19;16.50;57.30
37910;DHT22;23741;49.446;8.754;2023-03-23T08:55:21;16.50;57.20
37910;DHT22;23741;49.446;8.754;2023-03-23T08:57:42;16.50;56.40
37910;DHT22;23741;49.446;8.754;2023-03-23T09:00:05;16.50;56.50
37910;DHT22;23741;49.446;8.754;2023-03-23T09:02:37;16.50;56.80
37910;DHT22;23741;49.446;8.754;2023-03-23T09:04:47;16.50;56.90
37910;DHT22;23741;49.446;8.754;2023-03-23T09:06:58;16.50;56.90
37910;DHT22;23741;49.446;8.754;2023-03-23T09:08:59;16.50;56.80
37910;DHT22;23741;49.446;8.754;2023-03-23T09:11:02;16.50;57.20
37910;DHT22;23741;49.446;8.754;2023-03-23T09:13:03;16.50;57.00
37910;DHT22;23741;49.446;8.754;2023-03-23T09:15:04;16.50;57.30
37910;DHT22;23741;49.446;8.754;2023-03-23T09:17:09;16.50;57.80
37910;DHT22;23741;49.446;8.754;2023-03-23T09:19:13;16.60;57.50
37910;DHT22;23741;49.446;8.754;2023-03-23T09:21:13;16.50;57.20
37910;DHT22;23741;49.446;8.754;2023-03-23T09:23:14;16.50;57.50
37910;DHT22;23741;49.446;8.754;2023-03-23T09:25:16;16.50;56.90
37910;DHT22;23741;49.446;8.754;2023-03-23T09:27:19;16.50;57.20
37910;DHT22;23741;49.446;8.754;2023-03-23T09:29:20;16.60;57.50
37910;DHT22;23741;49.446;8.754;2023-03-23T09:31:21;16.60;57.50
37910;DHT22;23741;49.446;8.754;2023-03-23T09:33:22;16.60;57.50
37910;DHT22;23741;49.446;8.754;2023-03-23T09:35:23;16.60;57.40
37910;DHT22;23741;49.446;8.754;2023-03-23T09:37:24;16.60;57.50
37910;DHT22;23741;49.446;8.754;2023-03-23T09:39:25;16.60;57.70
37910;DHT22;23741;49.446;8.754;2023-03-23T09:43:43;16.60;57.50
37910;DHT22;23741;49.446;8.754;2023-03-23T09:48:17;16.70;57.80
37910;DHT22;23741;49.446;8.754;2023-03-23T09:50:24;16.70;57.50
37910;DHT22;23741;49.446;8.754;2023-03-23T09:52:49;16.70;57.20
37910;DHT22;23741;49.446;8.754;2023-03-23T09:54:49;16.70;57.20
37910;DHT22;23741;49.446;8.754;2023-03-23T09:56:50;16.80;57.50
37910;DHT22;23741;49.446;8.754;2023-03-23T09:58:54;16.70;57.60
37910;DHT22;23741;49.446;8.754;2023-03-23T10:01:04;16.70;57.50
37910;DHT22;23741;49.446;8.754;2023-03-23T10:03:10;16.80;57.70
37910;DHT22;23741;49.446;8.754;2023-03-23T10:05:24;16.80;57.30
37910;DHT22;23741;49.446;8.754;2023-03-23T10:07:26;16.80;57.40
37910;DHT22;23741;49.446;8.754;2023-03-23T10:09:27;16.80;57.10
37910;DHT22;23741;49.446;8.754;2023-03-23T10:13:56;16.80;56.80
37910;DHT22;23741;49.446;8.754;2023-03-23T10:15:57;16.80;56.90
37910;DHT22;23741;49.446;8.754;2023-03-23T10:18:19;16.80;57.30
37910;DHT22;23741;49.446;8.754;2023-03-23T10:20:27;16.80;57.00
37910;DHT22;23741;49.446;8.754;2023-03-23T10:22:31;16.80;57.20
37910;DHT22;23741;49.446;8.754;2023-03-23T10:24:34;16.90;57.30
37910;DHT22;23741;49.446;8.754;2023-03-23T10:26:39;16.90;57.30
37910;DHT22;23741;49.446;8.754;2023-03-23T10:28:42;16.90;57.20
37910;DHT22;23741;49.446;8.754;2023-03-23T10:31:19;17.00;57.30
37910;DHT22;23741;49.446;8.754;2023-03-23T10:33:23;17.00;57.30
37910;DHT22;23741;49.446;8.754;2023-03-23T10:35:33;17.00;57.50
37910;DHT22;23741;49.446;8.754;2023-03-23T10:37:39;17.00;57.50
37910;DHT22;23741;49.446;8.754;2023-03-23T10:41:46;17.10;57.40
37910;DHT22;23741;49.446;8.754;2023-03-23T10:43:46;17.10;57.90
37910;DHT22;23741;49.446;8.754;2023-03-23T10:45:54;17.10;57.10
37910;DHT22;23741;49.446;8.754;2023-03-23T10:47:56;17.20;57.10
37910;DHT22;23741;49.446;8.754;2023-03-23T10:50:02;17.20;57.00
37910;DHT22;23741;49.446;8.754;2023-03-23T10:54:06;17.20;57.20
37910;DHT22;23741;49.446;8.754;2023-03-23T10:56:18;17.20;57.10
37910;DHT22;23741;49.446;8.754;2023-03-23T10:58:23;17.20;57.00
37910;DHT22;23741;49.446;8.754;2023-03-23T11:00:24;17.20;57.20
37910;DHT22;23741;49.446;8.754;2023-03-23T11:02:28;17.20;57.30
37910;DHT22;23741;49.446;8.754;2023-03-23T11:04:29;17.20;57.10
37910;DHT22;23741;49.446;8.754;2023-03-23T11:06:32;17.20;57.10
37910;DHT22;23741;49.446;8.754;2023-03-23T11:08:46;17.20;57.30
37910;DHT22;23741;49.446;8.754;2023-03-23T11:10:52;17.20;57.50
37910;DHT22;23741;49.446;8.754;2023-03-23T11:12:56;17.20;57.70
37910;DHT22;23741;49.446;8.754;2023-03-23T11:15:03;17.20;57.60
37910;DHT22;23741;49.446;8.754;2023-03-23T11:17:05;17.20;57.70
37910;DHT22;23741;49.446;8.754;2023-03-23T11:19:21;17.20;57.60
37910;DHT22;23741;49.446;8.754;2023-03-23T11:21:23;17.20;57.50
37910;DHT22;23741;49.446;8.754;2023-03-23T11:23:25;17.20;57.50
37910;DHT22;23741;49.446;8.754;2023-03-23T11:25:29;17.20;57.90
37910;DHT22;23741;49.446;8.754;2023-03-23T11:27:30;17.20;57.70
37910;DHT22;23741;49.446;8.754;2023-03-23T11:29:31;17.10;57.60
37910;DHT22;23741;49.446;8.754;2023-03-23T11:31:33;17.20;57.70
37910;DHT22;23741;49.446;8.754;2023-03-23T11:33:46;17.20;57.40
37910;DHT22;23741;49.446;8.754;2023-03-23T11:35:47;17.20;57.40
37910;DHT22;23741;49.446;8.754;2023-03-23T11:37:49;17.10;57.60
37910;DHT22;23741;49.446;8.754;2023-03-23T11:39:56;17.10;57.80
37910;DHT22;23741;49.446;8.754;2023-03-23T11:41:59;17.10;57.80
37910;DHT22;23741;49.446;8.754;2023-03-23T11:44:03;17.10;57.90
37910;DHT22;23741;49.446;8.754;2023-03-23T11:46:17;17.10;58.20
37910;DHT22;23741;49.446;8.754;2023-03-23T11:52:25;17.10;57.70
37910;DHT22;23741;49.446;8.754;2023-03-23T11:54:31;17.10;57.80
37910;DHT22;23741;49.446;8.754;2023-03-23T11:56:34;17.10;57.80
37910;DHT22;23741;49.446;8.754;2023-03-23T11:58:35;17.10;57.80
37910;DHT22;23741;49.446;8.754;2023-03-23T12:00:36;17.10;57.90
37910;DHT22;23741;49.446;8.754;2023-03-23T12:07:35;17.20;57.60
37910;DHT22;23741;49.446;8.754;2023-03-23T12:12:05;17.20;57.80
37910;DHT22;23741;49.446;8.754;2023-03-23T12:24:59;17.10;57.70
37910;DHT22;23741;49.446;8.754;2023-03-23T12:27:11;17.10;58.00
37910;DHT22;23741;49.446;8.754;2023-03-23T12:31:31;17.10;57.80
37910;DHT22;23741;49.446;8.754;2023-03-23T12:38:00;17.10;58.30
37910;DHT22;23741;49.446;8.754;2023-03-23T12:44:15;17.10;58.20
37910;DHT22;23741;49.446;8.754;2023-03-23T12:48:41;17.10;58.30
37910;DHT22;23741;49.446;8.754;2023-03-23T12:50:44;17.10;58.00
37910;DHT22;23741;49.446;8.754;2023-03-23T12:52:52;17.10;58.20
37910;DHT22;23741;49.446;8.754;2023-03-23T12:54:59;17.00;58.00
37910;DHT22;23741;49.446;8.754;2023-03-23T12:59:06;17.10;58.20
37910;DHT22;23741;49.446;8.754;2023-03-23T13:01:09;17.10;58.10
37910;DHT22;23741;49.446;8.754;2023-03-23T13:03:17;17.00;57.90
37910;DHT22;23741;49.446;8.754;2023-03-23T13:07:26;17.00;57.90
37910;DHT22;23741;49.446;8.754;2023-03-23T13:09:46;17.00;58.20
37910;DHT22;23741;49.446;8.754;2023-03-23T13:11:49;17.00;58.20
37910;DHT22;23741;49.446;8.754;2023-03-23T13:13:51;17.10;58.20
37910;DHT22;23741;49.446;8.754;2023-03-23T13:15:56;17.00;58.30
37910;DHT22;23741;49.446;8.754;2023-03-23T13:18:08;17.00;58.30
37910;DHT22;23741;49.446;8.754;2023-03-23T13:22:39;17.10;58.40
37910;DHT22;23741;49.446;8.754;2023-03-23T13:24:48;17.10;58.20
37910;DHT22;23741;49.446;8.754;2023-03-23T13:26:50;17.10;58.00
37910;DHT22;23741;49.446;8.754;2023-03-23T13:31:11;17.10;58.10
37910;DHT22;23741;49.446;8.754;2023-03-23T13:33:12;17.10;58.10
37910;DHT22;23741;49.446;8.754;2023-03-23T13:35:13;17.10;58.20
37910;DHT22;23741;49.446;8.754;2023-03-23T13:37:21;17.10;58.20
37910;DHT22;23741;49.446;8.754;2023-03-23T13:39:27;17.10;58.00
37910;DHT22;23741;49.446;8.754;2023-03-23T13:41:29;17.10;58.10
37910;DHT22;23741;49.446;8.754;2023-03-23T13:43:34;17.10;57.90
37910;DHT22;23741;49.446;8.754;2023-03-23T13:45:42;17.10;57.90
37910;DHT22;23741;49.446;8.754;2023-03-23T13:47:44;17.10;58.00
37910;DHT22;23741;49.446;8.754;2023-03-23T13:50:03;17.10;58.50
37910;DHT22;23741;49.446;8.754;2023-03-23T13:52:14;17.10;57.90
37910;DHT22;23741;49.446;8.754;2023-03-23T13:54:22;17.10;57.90
37910;DHT22;23741;49.446;8.754;2023-03-23T13:56:36;17.20;57.90
37910;DHT22;23741;49.446;8.754;2023-03-23T13:58:44;17.10;58.00
37910;DHT22;23741;49.446;8.754;2023-03-23T14:00:46;17.10;58.00
37910;DHT22;23741;49.446;8.754;2023-03-23T14:02:47;17.10;58.00
37910;DHT22;23741;49.446;8.754;2023-03-23T14:04:49;17.10;58.20
37910;DHT22;23741;49.446;8.754;2023-03-23T14:06:50;17.10;58.10
37910;DHT22;23741;49.446;8.754;2023-03-23T14:09:34;17.10;58.00
37910;DHT22;23741;49.446;8.754;2023-03-23T14:11:27;17.10;58.00
37910;DHT22;23741;49.446;8.754;2023-03-23T14:13:34;17.10;58.00
37910;DHT22;23741;49.446;8.754;2023-03-23T14:15:40;17.10;58.30
37910;DHT22;23741;49.446;8.754;2023-03-23T14:17:44;17.10;58.20
37910;DHT22;23741;49.446;8.754;2023-03-23T14:19:50;17.10;58.00
37910;DHT22;23741;49.446;8.754;2023-03-23T14:21:56;17.10;58.20
37910;DHT22;23741;49.446;8.754;2023-03-23T14:24:01;17.10;58.30
37910;DHT22;23741;49.446;8.754;2023-03-23T14:26:03;17.10;58.30